Bizerte, Tunisia
Current Conditions -  °F | °C
As of 1:00 AM on Monday 22 Dec 2014 (Local Time) from DTTB Reporting Station
Scattered Clouds Scattered Clouds  
Wind Chill: 55°   Ceiling: Unl
Heat Index: 55°   Visibility: 6mi
Dew Point: 46°   Wind: 6mph
Humidity: 72%   Direction: 310°NW
Pressure: 30.45"   Gusts: NA
Location:  37.28°N, 9.87°E
Report Text: DTTB 220000Z 31005KT 9999 SCT020 13/08 Q1031
Loading
Personal Weather Stations






























Interactive Weather Map New forecast layout! Learn more

10-Day Weather Forecast

Advertisements
Track Severe Weather on mobile